Main page
METAR-TAF:

METAR-TAF

Airports :

Comandante Gustavo Kraemer Airport

Bagé, Rio Grande do Sul, Brazil

latitude: 31-21S, longitude: 054-07W, elevation: 180 m

METAR: missing

Time: 00:57 (03:57 UTC)

Forecast

The report was made 6 hours and 57 minutes ago, at 21:00 UTC
Forecast valid from 26 at 00 UTC to 26 at 12 UTC
Wind 5 kt from the Southeast
Visibility 10 km or more
Few clouds at a height of 2000 ft
Becoming
from 26 at 03 UTC to 26 at 05 UTC
Visibility: 8000 m
Scattered clouds at a height of 1000 ft

TAF: SBBG 252100Z 2600/2612 14005KT 9999 FEW020 TN11/2605Z TX20/2612Z BECMG 2603/2605 8000 SCT010 RMK PDZ

Weather observations and forecasts of more than 4000 airports (METAR and TAF reports).

The available stations are represented by yellow and red dots on the map.

Hover mouse over dot to see the name of the station.

Then click to see weather observations and forecasts.

To change the map : click on the green buttons with a black cross to zoom in, on the green button with a dash to zoom out, or on the green arrows for adjacent maps.


METAR-TAF: